createdAt,value
2023-05-21T00:02:19.854Z,55.37
2023-05-21T00:04:46.989Z,55.46
2023-05-21T00:07:15.210Z,55.54
2023-05-21T00:09:41.776Z,55.91
2023-05-21T00:12:09.091Z,56.27
2023-05-21T00:14:36.015Z,56.29
2023-05-21T00:17:02.632Z,56.57
2023-05-21T00:19:29.166Z,56.35
2023-05-21T00:21:56.030Z,56.54
2023-05-21T00:24:22.507Z,56.45
2023-05-21T00:26:48.933Z,56.71
2023-05-21T00:29:15.352Z,56.89
2023-05-21T00:31:41.947Z,56.93
2023-05-21T00:34:08.555Z,57.11
2023-05-21T00:36:35.035Z,57.07
2023-05-21T00:39:02.424Z,56.85
2023-05-21T00:41:30.260Z,57.04
2023-05-21T00:43:57.212Z,57.04
2023-05-21T00:46:24.133Z,57.17
2023-05-21T00:48:51.056Z,57.12
2023-05-21T00:51:18.677Z,57.38
2023-05-21T00:53:46.639Z,57.51
2023-05-21T00:56:13.603Z,57.45
2023-05-21T00:58:40.979Z,57.64
2023-05-21T01:01:13.541Z,57.62
2023-05-21T01:03:41.076Z,57.54
2023-05-21T01:06:09.427Z,57.68
2023-05-21T01:08:37.678Z,57.56
2023-05-21T01:11:05.705Z,57.64
2023-05-21T01:13:34.622Z,58.10
2023-05-21T01:16:02.938Z,57.79
2023-05-21T01:18:29.855Z,57.87
2023-05-21T01:20:56.362Z,58.12
2023-05-21T01:23:22.917Z,58.11
2023-05-21T01:25:49.512Z,58.29
2023-05-21T01:28:15.985Z,58.11
2023-05-21T01:30:43.853Z,58.16
2023-05-21T01:33:24.290Z,58.34
2023-05-21T01:35:56.328Z,58.33
2023-05-21T01:39:05.091Z,58.44
2023-05-21T01:41:36.968Z,58.60
2023-05-21T01:44:07.020Z,58.33
2023-05-21T01:46:36.163Z,58.59
2023-05-21T01:49:04.949Z,58.48
2023-05-21T01:51:32.008Z,58.75
2023-05-21T01:53:58.567Z,58.68
2023-05-21T01:56:25.808Z,58.91
2023-05-21T01:58:52.688Z,58.72
2023-05-21T02:01:20.260Z,58.69
2023-05-21T02:03:46.844Z,58.82
2023-05-21T02:06:13.310Z,58.72
2023-05-21T02:08:40.323Z,58.97
2023-05-21T02:11:06.924Z,58.59
2023-05-21T02:13:33.821Z,58.91
2023-05-21T02:16:01.537Z,58.77
2023-05-21T02:18:29.246Z,58.78
2023-05-21T02:20:55.844Z,58.69
2023-05-21T02:23:22.312Z,58.86
2023-05-21T02:25:48.899Z,58.65
2023-05-21T02:28:15.874Z,58.83
2023-05-21T02:30:42.338Z,58.78
2023-05-21T02:33:09.210Z,58.85
2023-05-21T02:35:36.042Z,58.95
2023-05-21T02:38:03.060Z,58.95
2023-05-21T02:40:29.575Z,58.98
2023-05-21T02:42:56.043Z,59.04
2023-05-21T02:45:22.476Z,59.19
2023-05-21T02:47:49.083Z,59.04
2023-05-21T02:50:15.620Z,59.14
2023-05-21T02:52:42.221Z,59.33
2023-05-21T02:55:09.596Z,59.56
2023-05-21T02:57:36.006Z,59.28
2023-05-21T03:00:03.723Z,59.38
2023-05-21T03:02:30.327Z,59.68
2023-05-21T03:04:56.854Z,59.78
2023-05-21T03:07:24.363Z,60.08
2023-05-21T03:09:50.858Z,60.04
2023-05-21T03:12:17.370Z,60.20
2023-05-21T03:14:44.248Z,60.31
2023-05-21T03:17:13.936Z,60.41
2023-05-21T03:19:41.776Z,60.43
2023-05-21T03:22:08.889Z,60.66
2023-05-21T03:24:36.694Z,60.89
2023-05-21T03:27:05.930Z,60.85
2023-05-21T03:29:32.628Z,60.94
2023-05-21T03:31:59.360Z,61.02
2023-05-21T03:34:25.817Z,61.08
2023-05-21T03:36:52.322Z,61.13
2023-05-21T03:39:18.921Z,61.26
2023-05-21T03:41:45.415Z,61.40
2023-05-21T03:44:11.971Z,61.60
2023-05-21T03:46:38.512Z,61.78
2023-05-21T03:49:05.037Z,61.83
2023-05-21T03:51:31.745Z,61.94
2023-05-21T03:53:59.256Z,61.89
2023-05-21T03:56:26.292Z,62.01
2023-05-21T03:58:53.062Z,62.14
2023-05-21T04:01:19.707Z,62.28
2023-05-21T04:03:46.370Z,62.36
2023-05-21T04:06:12.923Z,62.52
2023-05-21T04:08:39.672Z,62.53
2023-05-21T04:11:06.097Z,62.66
2023-05-21T04:13:32.736Z,62.80
2023-05-21T04:15:59.753Z,63.11
2023-05-21T04:18:26.773Z,62.75
2023-05-21T04:20:53.820Z,63.21
2023-05-21T04:23:23.370Z,62.94
2023-05-21T04:25:50.794Z,63.15
2023-05-21T04:28:20.492Z,63.19
2023-05-21T04:30:49.983Z,63.45
2023-05-21T04:33:20.150Z,63.55
2023-05-21T04:35:50.121Z,63.73
2023-05-21T04:38:19.578Z,63.66
2023-05-21T04:40:52.302Z,63.87
2023-05-21T04:43:25.561Z,63.91
2023-05-21T04:45:54.692Z,64.18
2023-05-21T04:48:24.687Z,64.51
2023-05-21T04:50:52.079Z,64.23
2023-05-21T04:53:18.550Z,64.31
2023-05-21T04:55:45.060Z,64.54
2023-05-21T04:58:11.561Z,64.51
2023-05-21T05:00:39.241Z,64.74
2023-05-21T05:03:05.816Z,64.56
2023-05-21T05:05:32.318Z,64.75
2023-05-21T05:07:58.776Z,65.11
2023-05-21T05:10:25.204Z,65.13
2023-05-21T05:12:51.625Z,65.29
2023-05-21T05:15:18.106Z,65.10
2023-05-21T05:17:44.750Z,65.16
2023-05-21T05:20:11.598Z,65.27
2023-05-21T05:22:38.129Z,65.48
2023-05-21T05:25:05.306Z,65.58
2023-05-21T05:27:31.740Z,65.96
2023-05-21T05:29:58.169Z,65.88
2023-05-21T05:32:24.714Z,65.90
2023-05-21T05:34:51.379Z,66.33
2023-05-21T05:37:17.932Z,65.95
2023-05-21T05:39:44.365Z,65.99
2023-05-21T05:42:10.815Z,66.11
2023-05-21T05:44:37.304Z,66.04
2023-05-21T05:47:03.927Z,66.06
2023-05-21T05:49:30.394Z,66.01
2023-05-21T05:51:56.844Z,65.76
2023-05-21T05:54:23.267Z,65.58
2023-05-21T05:56:49.707Z,65.54
2023-05-21T05:59:16.444Z,65.16
2023-05-21T06:01:42.864Z,65.49
2023-05-21T06:04:09.330Z,65.23
2023-05-21T06:06:36.735Z,65.33
2023-05-21T06:09:03.265Z,65.08
2023-05-21T06:11:29.699Z,65.01
2023-05-21T06:13:56.709Z,64.88
2023-05-21T06:16:23.254Z,64.92
2023-05-21T06:18:49.758Z,64.90
2023-05-21T06:21:16.479Z,64.67
2023-05-21T06:23:42.924Z,64.67
2023-05-21T06:26:09.370Z,64.71
2023-05-21T06:28:36.270Z,64.47
2023-05-21T06:31:02.766Z,64.12
2023-05-21T06:33:29.347Z,63.96
2023-05-21T06:35:55.879Z,63.46
2023-05-21T06:38:22.367Z,63.52
2023-05-21T06:40:49.486Z,63.09
2023-05-21T06:43:16.024Z,62.92
2023-05-21T06:45:42.509Z,62.88
2023-05-21T06:48:09.146Z,62.63
2023-05-21T06:50:35.690Z,62.60
2023-05-21T06:53:02.176Z,62.37
2023-05-21T06:55:28.672Z,62.25
2023-05-21T06:57:55.094Z,62.36
2023-05-21T07:00:21.775Z,61.89
2023-05-21T07:02:48.291Z,61.69
2023-05-21T07:05:14.760Z,61.44
2023-05-21T07:07:41.187Z,61.06
2023-05-21T07:10:08.450Z,60.83
2023-05-21T07:12:35.000Z,60.96
2023-05-21T07:15:01.479Z,61.21
2023-05-21T07:17:27.943Z,61.03
2023-05-21T07:19:54.405Z,61.24
2023-05-21T07:22:20.994Z,60.90
2023-05-21T07:24:47.473Z,60.86
2023-05-21T07:27:24.803Z,60.34
2023-05-21T07:29:52.504Z,60.29
2023-05-21T07:32:18.952Z,60.03
2023-05-21T07:34:45.380Z,60.08
2023-05-21T07:37:11.817Z,59.86
2023-05-21T07:39:38.254Z,59.83
2023-05-21T07:42:04.908Z,60.09
2023-05-21T07:44:31.939Z,60.08
2023-05-21T07:46:58.378Z,59.95
2023-05-21T07:49:24.814Z,59.52
2023-05-21T07:51:51.266Z,59.42
2023-05-21T07:54:18.207Z,59.10
2023-05-21T07:56:44.633Z,58.90
2023-05-21T07:59:13.323Z,58.22
2023-05-21T08:01:41.055Z,58.56
2023-05-21T08:04:07.891Z,58.18
2023-05-21T08:06:34.668Z,57.76
2023-05-21T08:09:04.655Z,57.33
2023-05-21T08:11:31.080Z,57.69
2023-05-21T08:13:57.542Z,57.35
2023-05-21T08:16:24.208Z,57.05
2023-05-21T08:18:50.894Z,56.77
2023-05-21T08:21:17.448Z,56.54
2023-05-21T08:23:44.408Z,56.62
2023-05-21T08:26:11.057Z,56.34
2023-05-21T08:28:40.501Z,56.39
2023-05-21T08:31:06.997Z,55.82
2023-05-21T08:33:37.142Z,55.73
2023-05-21T08:36:07.911Z,55.92
2023-05-21T08:38:34.618Z,55.69
2023-05-21T08:41:01.209Z,55.70
2023-05-21T08:43:28.648Z,55.78
2023-05-21T08:45:57.274Z,55.89
2023-05-21T08:48:24.254Z,55.86
2023-05-21T08:50:52.446Z,55.93
2023-05-21T08:53:27.294Z,55.79
2023-05-21T08:55:56.118Z,55.57
2023-05-21T08:58:23.136Z,55.62
2023-05-21T09:00:49.865Z,55.73
2023-05-21T09:03:16.728Z,55.92
2023-05-21T09:05:45.081Z,56.09
2023-05-21T09:08:18.354Z,55.36
2023-05-21T09:10:52.276Z,55.86
2023-05-21T09:13:20.190Z,55.91
2023-05-21T09:15:47.842Z,55.72
2023-05-21T09:18:14.897Z,55.91
2023-05-21T09:20:41.604Z,56.78
2023-05-21T09:23:17.038Z,57.17
2023-05-21T09:25:47.985Z,57.46
2023-05-21T09:28:16.104Z,57.65
2023-05-21T09:30:52.219Z,57.24
2023-05-21T09:33:26.606Z,57.27
2023-05-21T09:35:53.195Z,57.10
2023-05-21T09:38:22.967Z,56.78
2023-05-21T09:40:49.456Z,56.46
2023-05-21T09:43:16.378Z,55.84
2023-05-21T09:45:53.703Z,55.22
2023-05-21T09:48:40.779Z,56.02
2023-05-21T09:51:18.045Z,55.87
2023-05-21T09:53:54.662Z,55.97
2023-05-21T09:56:23.594Z,55.33
2023-05-21T09:59:00.279Z,55.38
2023-05-21T10:01:27.419Z,55.86
2023-05-21T10:03:58.589Z,56.06
2023-05-21T10:06:28.365Z,56.07
2023-05-21T10:08:57.070Z,56.09
2023-05-21T10:11:27.226Z,55.87
2023-05-21T10:14:10.489Z,55.87
2023-05-21T10:16:37.467Z,56.15
2023-05-21T10:19:10.924Z,56.26
2023-05-21T10:21:39.713Z,56.06
2023-05-21T10:24:07.394Z,55.70
2023-05-21T10:26:34.507Z,55.88
2023-05-21T10:29:02.686Z,55.82
2023-05-21T10:31:29.603Z,55.45
2023-05-21T10:33:56.250Z,55.55
2023-05-21T10:36:24.639Z,55.27
2023-05-21T10:38:51.460Z,55.12
2023-05-21T10:41:20.011Z,55.03
2023-05-21T10:43:59.320Z,54.62
2023-05-21T10:46:47.171Z,54.21
2023-05-21T10:49:38.482Z,54.13
2023-05-21T10:52:51.418Z,53.75
2023-05-21T10:55:36.488Z,53.72
2023-05-21T10:58:14.948Z,53.14
2023-05-21T11:00:42.753Z,53.20
2023-05-21T11:03:12.882Z,53.04
2023-05-21T11:05:52.697Z,53.13
2023-05-21T11:08:27.445Z,53.38
2023-05-21T11:10:55.367Z,52.76
2023-05-21T11:13:22.061Z,53.05
2023-05-21T11:15:57.739Z,52.93
2023-05-21T11:18:47.113Z,52.85
2023-05-21T11:21:14.988Z,52.68
2023-05-21T11:23:50.872Z,51.70
2023-05-21T11:26:26.367Z,51.75
2023-05-21T11:29:05.046Z,51.35
2023-05-21T11:31:39.578Z,51.15
2023-05-21T11:34:12.425Z,51.32
2023-05-21T11:36:45.588Z,51.62
2023-05-21T11:39:15.705Z,51.51
2023-05-21T11:41:52.440Z,50.91
2023-05-21T11:44:21.614Z,51.10
2023-05-21T11:46:48.841Z,50.51
2023-05-21T11:49:16.025Z,50.82
2023-05-21T11:51:42.933Z,50.48
2023-05-21T11:54:10.320Z,50.08
2023-05-21T11:56:41.767Z,49.98
2023-05-21T11:59:15.499Z,49.47
2023-05-21T12:01:44.181Z,49.86
2023-05-21T12:04:12.179Z,50.04
2023-05-21T12:06:42.547Z,48.91
2023-05-21T12:09:10.311Z,49.22
2023-05-21T12:11:41.126Z,49.07
2023-05-21T12:14:09.430Z,49.32
2023-05-21T12:16:36.312Z,49.31
2023-05-21T12:19:03.927Z,48.86
2023-05-21T12:21:31.429Z,49.26
2023-05-21T12:23:58.319Z,49.78
2023-05-21T12:26:25.831Z,50.04
2023-05-21T12:28:56.102Z,50.37
2023-05-21T12:31:23.580Z,50.19
2023-05-21T12:33:53.685Z,50.11
2023-05-21T12:36:26.859Z,49.45
2023-05-21T12:38:53.667Z,48.87
2023-05-21T12:41:22.081Z,49.47
2023-05-21T12:43:49.312Z,49.89
2023-05-21T12:46:19.767Z,49.61
2023-05-21T12:48:58.233Z,50.00
2023-05-21T12:51:24.829Z,50.03
2023-05-21T12:53:51.552Z,50.24
2023-05-21T12:56:18.056Z,50.97
2023-05-21T12:58:50.233Z,50.90
2023-05-21T13:01:16.709Z,50.17
2023-05-21T13:03:44.126Z,49.50
2023-05-21T13:06:10.787Z,48.79
2023-05-21T13:08:37.756Z,49.02
2023-05-21T13:11:04.820Z,48.70
2023-05-21T13:13:31.540Z,48.57
2023-05-21T13:16:00.561Z,47.75
2023-05-21T13:18:27.138Z,47.77
2023-05-21T13:20:53.788Z,47.24
2023-05-21T13:23:20.495Z,47.18
2023-05-21T13:25:46.917Z,46.37
2023-05-21T13:28:15.277Z,46.40
2023-05-21T13:30:41.772Z,46.07
2023-05-21T13:33:08.553Z,45.99
2023-05-21T13:35:35.284Z,46.07
2023-05-21T13:38:02.101Z,46.24
2023-05-21T13:40:28.574Z,45.95
2023-05-21T13:42:55.068Z,46.40
2023-05-21T13:45:21.757Z,45.78
2023-05-21T13:47:48.450Z,45.34
2023-05-21T13:50:16.028Z,44.61
2023-05-21T13:52:42.764Z,44.17
2023-05-21T13:55:09.961Z,44.20
2023-05-21T13:57:36.478Z,44.59
2023-05-21T14:00:04.655Z,44.46
2023-05-21T14:02:31.150Z,44.78
2023-05-21T14:04:57.677Z,44.52
2023-05-21T14:07:24.144Z,44.93
2023-05-21T14:09:50.602Z,44.98
2023-05-21T14:12:17.210Z,44.99
2023-05-21T14:14:43.961Z,45.28
2023-05-21T14:17:10.493Z,45.67
2023-05-21T14:19:36.956Z,45.41
2023-05-21T14:22:03.449Z,44.67
2023-05-21T14:24:29.901Z,44.90
2023-05-21T14:26:56.393Z,45.05
2023-05-21T14:29:22.878Z,45.20
2023-05-21T14:31:49.454Z,45.19
2023-05-21T14:34:15.956Z,45.87
2023-05-21T14:36:42.386Z,45.80
2023-05-21T14:39:08.806Z,45.91
2023-05-21T14:41:39.526Z,46.71
2023-05-21T14:44:05.975Z,46.94
2023-05-21T14:46:32.889Z,46.70
2023-05-21T14:49:00.529Z,46.59
2023-05-21T14:51:27.073Z,46.84
2023-05-21T14:53:53.611Z,47.75
2023-05-21T14:56:21.877Z,47.97
2023-05-21T14:58:48.450Z,48.66
2023-05-21T15:01:15.062Z,49.45
2023-05-21T15:03:41.691Z,49.58
2023-05-21T15:06:08.458Z,49.96
2023-05-21T15:08:34.964Z,50.21
2023-05-21T15:11:01.538Z,49.98
2023-05-21T15:13:27.954Z,50.06
2023-05-21T15:15:54.517Z,50.71
2023-05-21T15:18:21.003Z,50.58
2023-05-21T15:20:47.514Z,50.37
2023-05-21T15:23:17.477Z,50.33
2023-05-21T15:25:45.065Z,51.02
2023-05-21T15:28:14.530Z,51.39
2023-05-21T15:30:40.954Z,51.41
2023-05-21T15:33:07.513Z,51.48
2023-05-21T15:35:36.359Z,51.61
2023-05-21T15:38:03.316Z,51.74
2023-05-21T15:40:29.770Z,51.42
2023-05-21T15:42:56.262Z,51.28
2023-05-21T15:45:22.725Z,50.91
2023-05-21T15:47:49.193Z,50.38
2023-05-21T15:50:15.793Z,49.75
2023-05-21T15:52:42.699Z,49.29
2023-05-21T15:55:09.644Z,49.12
2023-05-21T15:57:36.112Z,49.08
2023-05-21T16:00:02.650Z,48.99
2023-05-21T16:02:29.143Z,49.08
2023-05-21T16:04:55.654Z,49.13
2023-05-21T16:07:23.502Z,49.31
2023-05-21T16:09:50.056Z,49.70
2023-05-21T16:12:16.659Z,49.48
2023-05-21T16:14:43.150Z,49.54
2023-05-21T16:17:09.736Z,49.49
2023-05-21T16:19:36.473Z,49.79
2023-05-21T16:22:03.030Z,50.05
2023-05-21T16:24:29.505Z,50.56
2023-05-21T16:26:56.015Z,50.57
2023-05-21T16:29:22.485Z,51.18
2023-05-21T16:31:49.068Z,51.15
2023-05-21T16:34:15.788Z,50.76
2023-05-21T16:36:42.266Z,50.62
2023-05-21T16:39:08.772Z,50.78
2023-05-21T16:41:35.476Z,51.42
2023-05-21T16:44:01.988Z,51.50
2023-05-21T16:46:28.496Z,50.93
2023-05-21T16:48:54.997Z,51.42
2023-05-21T16:51:21.477Z,52.12
2023-05-21T16:53:48.151Z,51.96
2023-05-21T16:56:14.599Z,52.30
2023-05-21T16:58:41.038Z,52.65
2023-05-21T17:01:07.530Z,53.11
2023-05-21T17:03:34.192Z,53.39
2023-05-21T17:06:00.901Z,53.49
2023-05-21T17:08:27.362Z,54.11
2023-05-21T17:10:55.420Z,54.67
2023-05-21T17:13:23.027Z,54.89
2023-05-21T17:15:51.160Z,54.99
2023-05-21T17:18:17.999Z,55.35
2023-05-21T17:20:44.782Z,55.38
2023-05-21T17:23:12.434Z,55.39
2023-05-21T17:25:39.737Z,55.45
2023-05-21T17:28:06.854Z,55.85
2023-05-21T17:30:33.445Z,56.22
2023-05-21T17:33:02.173Z,56.52
2023-05-21T17:35:28.912Z,56.55
2023-05-21T17:37:55.389Z,56.55
2023-05-21T17:40:24.277Z,56.72
2023-05-21T17:42:51.895Z,57.01
2023-05-21T17:45:18.611Z,57.32
2023-05-21T17:47:45.072Z,57.33
2023-05-21T17:50:11.510Z,57.89
2023-05-21T17:52:37.972Z,58.24
2023-05-21T17:55:05.192Z,58.52
2023-05-21T17:57:31.639Z,58.83
2023-05-21T17:59:58.128Z,59.05
2023-05-21T18:02:25.387Z,59.16
2023-05-21T18:04:51.888Z,59.44
2023-05-21T18:07:18.293Z,59.38
2023-05-21T18:09:45.077Z,59.71
2023-05-21T18:12:11.605Z,59.82
2023-05-21T18:14:38.086Z,60.29
2023-05-21T18:17:05.752Z,60.20
2023-05-21T18:19:32.343Z,60.42
2023-05-21T18:21:58.826Z,60.57
2023-05-21T18:24:25.603Z,60.93
2023-05-21T18:26:52.154Z,60.87
2023-05-21T18:29:18.638Z,61.02
2023-05-21T18:31:45.481Z,61.04
2023-05-21T18:34:12.212Z,61.14
2023-05-21T18:36:38.725Z,61.30
2023-05-21T18:39:06.810Z,61.63
2023-05-21T18:41:33.535Z,61.77
2023-05-21T18:44:01.684Z,61.86
2023-05-21T18:46:28.975Z,62.01
2023-05-21T18:48:56.050Z,62.45
2023-05-21T18:51:22.685Z,62.63
2023-05-21T18:53:49.140Z,62.70
2023-05-21T18:56:15.684Z,62.77
2023-05-21T18:58:42.128Z,63.05
2023-05-21T19:01:08.632Z,63.42
2023-05-21T19:03:35.043Z,63.37
2023-05-21T19:06:01.706Z,63.31
2023-05-21T19:08:28.133Z,63.39
2023-05-21T19:10:54.625Z,63.56
2023-05-21T19:13:21.242Z,63.74
2023-05-21T19:15:48.944Z,63.69
2023-05-21T19:18:17.280Z,63.82
2023-05-21T19:20:43.804Z,63.98
2023-05-21T19:23:10.483Z,64.04
2023-05-21T19:25:36.924Z,64.29
2023-05-21T19:28:03.439Z,64.54
2023-05-21T19:30:29.916Z,64.95
2023-05-21T19:32:56.448Z,65.50
2023-05-21T19:35:22.967Z,65.27
2023-05-21T19:37:49.895Z,65.24
2023-05-21T19:40:17.645Z,65.72
2023-05-21T19:42:44.760Z,65.80
2023-05-21T19:45:11.803Z,65.91
2023-05-21T19:47:41.038Z,66.23
2023-05-21T19:50:08.194Z,66.31
2023-05-21T19:52:34.652Z,66.53
2023-05-21T19:55:04.794Z,66.94
2023-05-21T19:57:32.561Z,67.18
2023-05-21T19:59:59.130Z,67.05
2023-05-21T20:02:26.580Z,67.20
2023-05-21T20:04:56.703Z,66.86
2023-05-21T20:07:23.787Z,67.20
2023-05-21T20:09:50.624Z,67.53
2023-05-21T20:12:17.056Z,68.35
2023-05-21T20:14:46.694Z,68.21
2023-05-21T20:17:14.305Z,68.66
2023-05-21T20:19:41.062Z,68.45
2023-05-21T20:22:07.551Z,68.57
2023-05-21T20:24:34.057Z,68.76
2023-05-21T20:27:01.687Z,69.36
2023-05-21T20:29:28.808Z,69.15
2023-05-21T20:31:55.458Z,69.38
2023-05-21T20:34:21.972Z,69.72
2023-05-21T20:36:49.166Z,69.87
2023-05-21T20:39:15.706Z,69.71
2023-05-21T20:41:44.772Z,69.44
2023-05-21T20:44:11.917Z,69.66
2023-05-21T20:46:41.152Z,70.02
2023-05-21T20:49:07.721Z,70.43
2023-05-21T20:51:34.199Z,70.50
2023-05-21T20:54:00.924Z,70.89
2023-05-21T20:56:40.902Z,70.88
2023-05-21T20:59:10.910Z,71.03
2023-05-21T21:01:38.429Z,71.41
2023-05-21T21:04:05.267Z,71.21
2023-05-21T21:06:31.977Z,71.36
2023-05-21T21:08:58.734Z,71.22
2023-05-21T21:11:25.244Z,71.53
2023-05-21T21:13:51.906Z,71.66
2023-05-21T21:16:18.655Z,71.73
2023-05-21T21:18:46.922Z,71.93
2023-05-21T21:21:13.769Z,72.44
2023-05-21T21:23:40.269Z,72.61
2023-05-21T21:26:07.160Z,72.16
2023-05-21T21:28:33.947Z,72.66
2023-05-21T21:31:00.686Z,72.32
2023-05-21T21:33:28.358Z,72.67
2023-05-21T21:35:55.010Z,72.64
2023-05-21T21:38:21.664Z,72.59
2023-05-21T21:40:48.209Z,72.77
2023-05-21T21:43:14.708Z,73.08
2023-05-21T21:45:41.233Z,72.90
2023-05-21T21:48:07.805Z,73.02
2023-05-21T21:50:34.366Z,73.10
2023-05-21T21:53:01.206Z,73.19
2023-05-21T21:55:27.783Z,73.51
2023-05-21T21:57:54.243Z,73.55
2023-05-21T22:00:20.988Z,73.74
2023-05-21T22:02:47.539Z,73.90
2023-05-21T22:05:17.022Z,74.38
2023-05-21T22:07:47.125Z,74.37
2023-05-21T22:10:17.260Z,74.51
2023-05-21T22:12:44.690Z,74.28
2023-05-21T22:15:18.453Z,75.05
2023-05-21T22:17:45.313Z,74.73
2023-05-21T22:20:11.895Z,75.04
2023-05-21T22:22:38.336Z,74.92
2023-05-21T22:25:05.166Z,75.29
2023-05-21T22:27:31.595Z,75.38
2023-05-21T22:29:58.016Z,75.57
2023-05-21T22:32:24.536Z,76.30
2023-05-21T22:34:50.993Z,75.83
2023-05-21T22:37:17.838Z,75.82
2023-05-21T22:39:44.341Z,75.97
2023-05-21T22:42:11.086Z,75.59
2023-05-21T22:44:37.562Z,75.47
2023-05-21T22:47:04.212Z,75.83
2023-05-21T22:49:32.611Z,75.71
2023-05-21T22:52:06.239Z,75.84
2023-05-21T22:54:32.981Z,75.60
2023-05-21T22:57:01.093Z,75.81
2023-05-21T22:59:32.387Z,76.17
2023-05-21T23:01:59.137Z,76.07
2023-05-21T23:04:42.797Z,75.94
2023-05-21T23:07:10.246Z,76.10
2023-05-21T23:09:36.717Z,76.95
2023-05-21T23:12:03.479Z,76.64
2023-05-21T23:14:29.934Z,76.28
2023-05-21T23:17:01.911Z,76.33
2023-05-21T23:19:29.495Z,76.78
2023-05-21T23:21:56.376Z,76.59
2023-05-21T23:24:23.194Z,76.47
2023-05-21T23:26:49.823Z,76.49
2023-05-21T23:29:16.452Z,76.37
2023-05-21T23:31:43.674Z,76.76
2023-05-21T23:34:10.301Z,77.15
2023-05-21T23:36:36.752Z,76.86
2023-05-21T23:39:03.558Z,77.00
2023-05-21T23:41:30.145Z,76.84
2023-05-21T23:43:56.620Z,76.89
2023-05-21T23:46:23.281Z,77.04
2023-05-21T23:48:49.853Z,76.82
2023-05-21T23:51:18.265Z,76.81
2023-05-21T23:53:45.165Z,76.83
2023-05-21T23:56:11.589Z,76.80
2023-05-21T23:58:38.030Z,76.69
